Time;durP1;ratioP1;P1;durP2;ratioP2;P2;SDS_P1;SDS_P2;PMS_P1;PMS_P2;Temp;Humidity;BMP_temperature;BMP_pressure;BME280_temperature;BME280_humidity;BME280_pressure;Samples;Min_cycle;Max_cycle;Signal;HPM_P1;HPM_P2
2023/03/22 00:01:15;;;;;;;1.05;0.50;;;17.70;77.80;;;;;;5064947;28;45156;-81
2023/03/22 00:03:43;;;;;;;0.77;0.40;;;17.70;77.60;;;;;;5064474;28;46461;-81
2023/03/22 00:06:10;;;;;;;0.55;0.50;;;17.70;77.40;;;;;;5064712;28;45913;-82
2023/03/22 00:08:37;;;;;;;0.68;0.50;;;17.70;77.50;;;;;;5064663;28;45215;-81
2023/03/22 00:11:06;;;;;;;1.25;0.60;;;17.70;77.10;;;;;;5064495;28;45406;-82
2023/03/22 00:13:34;;;;;;;0.98;0.65;;;17.70;77.20;;;;;;5064371;28;46479;-81
2023/03/22 00:16:01;;;;;;;0.93;0.80;;;17.80;77.10;;;;;;5064233;28;45210;-81
2023/03/22 00:18:29;;;;;;;1.50;0.90;;;17.70;77.30;;;;;;5064697;28;45347;-81
2023/03/22 00:20:58;;;;;;;0.90;0.60;;;17.70;77.30;;;;;;5064424;28;45460;-82
2023/03/22 00:23:25;;;;;;;0.60;0.50;;;17.70;77.10;;;;;;5064381;28;47046;-81
2023/03/22 00:25:52;;;;;;;0.50;0.43;;;17.70;77.30;;;;;;5064490;28;45367;-82
2023/03/22 00:28:21;;;;;;;1.23;0.60;;;17.70;77.00;;;;;;5064376;28;45203;-81
2023/03/22 00:30:52;;;;;;;0.80;0.60;;;17.70;77.00;;;;;;5064393;28;45157;-82
2023/03/22 00:33:19;;;;;;;1.20;0.60;;;17.60;77.00;;;;;;5063298;28;47353;-81
2023/03/22 00:35:50;;;;;;;1.33;0.50;;;17.70;77.00;;;;;;5066825;28;45129;-81
2023/03/22 00:38:17;;;;;;;0.98;0.60;;;18.20;77.00;;;;;;5064677;28;45247;-81
2023/03/22 00:40:44;;;;;;;0.80;0.50;;;17.70;77.00;;;;;;5064759;28;45160;-81
2023/03/22 00:43:11;;;;;;;1.10;0.73;;;17.70;77.10;;;;;;5064093;28;45512;-80
2023/03/22 00:45:40;;;;;;;1.25;0.63;;;17.70;77.10;;;;;;5064184;28;45065;-79
2023/03/22 00:48:08;;;;;;;0.80;0.60;;;17.70;77.10;;;;;;5063473;28;45544;-80
2023/03/22 00:50:35;;;;;;;0.70;0.70;;;17.70;77.30;;;;;;5064049;27;45359;-81
2023/03/22 00:53:02;;;;;;;0.68;0.65;;;17.70;77.20;;;;;;5064075;28;47795;-81
2023/03/22 00:55:29;;;;;;;1.73;0.90;;;17.70;76.80;;;;;;5063946;28;45144;-81
2023/03/22 00:57:56;;;;;;;0.95;0.63;;;17.70;77.10;;;;;;5064080;28;45215;-81
2023/03/22 01:00:23;;;;;;;1.15;0.70;;;17.70;77.00;;;;;;5064171;28;45189;-81
2023/03/22 01:02:52;;;;;;;0.50;0.50;;;17.70;78.10;;;;;;5063476;28;47312;-81
2023/03/22 01:05:20;;;;;;;0.70;0.40;;;17.70;76.30;;;;;;5064037;28;45165;-81
2023/03/22 01:07:49;;;;;;;0.57;0.50;;;17.70;76.20;;;;;;5064369;28;45297;-81
2023/03/22 01:10:17;;;;;;;0.60;0.40;;;17.70;76.30;;;;;;5063845;28;45441;-81
2023/03/22 01:12:44;;;;;;;0.82;0.50;;;17.70;76.30;;;;;;5063419;28;47971;-81
2023/03/22 01:15:11;;;;;;;0.47;0.47;;;17.60;76.20;;;;;;5063735;28;45367;-81
2023/03/22 01:17:38;;;;;;;0.55;0.40;;;17.60;76.20;;;;;;5063866;28;45209;-81
2023/03/22 01:20:08;;;;;;;1.15;0.60;;;17.60;76.20;;;;;;5063999;28;45141;-81
2023/03/22 01:22:35;;;;;;;0.63;0.50;;;17.60;76.10;;;;;;5064001;28;47873;-81
2023/03/22 01:25:02;;;;;;;0.75;0.60;;;17.70;76.30;;;;;;5063536;28;45366;-81
2023/03/22 01:27:29;;;;;;;1.63;0.88;;;17.60;76.20;;;;;;5066843;28;45198;-81
2023/03/22 01:29:56;;;;;;;0.98;0.68;;;17.60;76.20;;;;;;5064157;28;45425;-81
2023/03/22 01:32:23;;;;;;;1.63;0.60;;;17.60;76.20;;;;;;5063190;28;47859;-80
2023/03/22 01:34:50;;;;;;;1.33;0.60;;;17.60;76.20;;;;;;5063727;28;45318;-81
2023/03/22 01:37:18;;;;;;;0.93;0.60;;;17.70;76.30;;;;;;5063922;28;45348;-80
2023/03/22 01:39:45;;;;;;;1.00;0.60;;;17.60;76.20;;;;;;5064039;28;45297;-80
2023/03/22 01:42:13;;;;;;;0.77;0.60;;;17.70;76.30;;;;;;5063187;28;46870;-81
2023/03/22 01:44:42;;;;;;;1.23;0.70;;;17.70;76.30;;;;;;5063312;28;45188;-82
2023/03/22 01:47:10;;;;;;;0.98;0.70;;;17.60;76.20;;;;;;5063238;28;45416;-81
2023/03/22 01:49:38;;;;;;;0.50;0.50;;;17.70;76.50;;;;;;5063716;28;45563;-81
2023/03/22 01:52:09;;;;;;;1.08;0.52;;;17.70;76.30;;;;;;5062835;28;47943;-81
2023/03/22 01:54:43;;;;;;;1.13;0.60;;;17.70;76.30;;;;;;5063417;28;45260;-80
2023/03/22 01:57:11;;;;;;;0.60;0.60;;;17.70;76.30;;;;;;5063336;28;45378;-81
2023/03/22 01:59:38;;;;;;;0.75;0.70;;;17.70;76.30;;;;;;5063700;28;45095;-81
2023/03/22 02:02:06;;;;;;;0.57;0.57;;;17.70;76.30;;;;;;5062769;28;46638;-83
2023/03/22 02:04:37;;;;;;;1.83;0.60;;;17.60;76.20;;;;;;5062776;28;45163;-81
2023/03/22 02:07:08;;;;;;;0.88;0.50;;;17.70;76.30;;;;;;5063210;28;45103;-80
2023/03/22 02:09:40;;;;;;;1.88;0.68;;;18.00;76.50;;;;;;5063205;28;45132;-81
2023/03/22 02:12:31;;;;;;;0.55;0.50;;;17.70;76.30;;;;;;5062933;28;46474;-81
2023/03/22 02:15:08;;;;;;;0.80;0.60;;;17.60;76.20;;;;;;5062897;28;45122;-81
2023/03/22 02:17:50;;;;;;;1.10;0.60;;;17.60;76.10;;;;;;5063151;28;45295;-80
2023/03/22 02:20:55;;;;;;;0.60;0.60;;;17.60;76.20;;;;;;5066216;28;45196;-81
2023/03/22 02:24:06;;;;;;;1.42;0.60;;;17.60;76.20;;;;;;5060006;28;45878;-81
2023/03/22 02:26:58;;;;;;;0.70;0.60;;;17.60;76.10;;;;;;5062493;28;45237;-80
2023/03/22 02:29:36;;;;;;;0.70;0.60;;;17.60;76.10;;;;;;5062654;28;45126;-81
2023/03/22 02:32:34;;;;;;;0.50;0.50;;;17.60;76.20;;;;;;5060057;28;45215;-81
2023/03/22 02:35:29;;;;;;;1.50;0.70;;;17.60;76.10;;;;;;5062148;28;46524;-80
2023/03/22 02:38:26;;;;;;;0.60;0.60;;;17.60;76.20;;;;;;5060812;28;45217;-80
2023/03/22 02:41:07;;;;;;;0.93;0.55;;;17.60;76.10;;;;;;5062636;28;45156;-80
2023/03/22 02:43:37;;;;;;;0.50;0.50;;;17.60;76.10;;;;;;5062685;28;45231;-81
2023/03/22 02:46:08;;;;;;;0.57;0.38;;;17.60;76.20;;;;;;5062155;28;48341;-81
2023/03/22 02:48:41;;;;;;;0.52;0.40;;;17.60;76.20;;;;;;5062258;28;45153;-81
2023/03/22 02:51:13;;;;;;;0.63;0.57;;;17.60;76.20;;;;;;5062777;28;45163;-80
2023/03/22 02:53:45;;;;;;;0.73;0.47;;;17.70;76.30;;;;;;5062678;28;45065;-81
2023/03/22 02:56:18;;;;;;;3.03;0.60;;;17.70;76.30;;;;;;5061131;28;45271;-80
2023/03/22 02:58:48;;;;;;;1.02;0.52;;;17.70;76.00;;;;;;5065576;28;45232;-81
2023/03/22 03:01:19;;;;;;;0.75;0.50;;;17.70;76.30;;;;;;5065292;28;45237;-80
2023/03/22 03:03:49;;;;;;;0.93;0.55;;;17.70;76.30;;;;;;5065716;28;45380;-81
2023/03/22 03:06:19;;;;;;;0.50;0.35;;;17.70;76.20;;;;;;5065147;28;47731;-80
2023/03/22 03:08:50;;;;;;;0.98;0.50;;;17.70;76.30;;;;;;5065808;28;45247;-81
2023/03/22 03:11:19;;;;;;;1.85;0.60;;;17.70;76.10;;;;;;5068976;28;45241;-81
2023/03/22 03:13:47;;;;;;;0.50;0.50;;;17.60;75.70;;;;;;5065870;28;45292;-81
2023/03/22 03:16:16;;;;;;;0.60;0.40;;;17.60;75.60;;;;;;5065169;28;47030;-81
2023/03/22 03:18:47;;;;;;;0.60;0.50;;;17.60;76.10;;;;;;5065282;28;45297;-80
2023/03/22 03:21:29;;;;;;;0.43;0.43;;;17.60;75.80;;;;;;5065423;28;45279;-81
2023/03/22 03:24:06;;;;;;;0.63;0.50;;;17.60;76.10;;;;;;5065241;28;45393;-81
2023/03/22 03:26:42;;;;;;;0.50;0.45;;;17.60;75.60;;;;;;5065592;28;46701;-80
2023/03/22 03:29:14;;;;;;;0.50;0.50;;;17.60;75.80;;;;;;5065515;28;45303;-80
2023/03/22 03:31:46;;;;;;;0.85;0.52;;;17.60;75.90;;;;;;5064998;28;45229;-81
2023/03/22 03:34:19;;;;;;;1.50;0.55;;;17.60;75.60;;;;;;5065325;28;45586;-80
2023/03/22 03:36:52;;;;;;;0.77;0.60;;;17.60;75.60;;;;;;5064822;28;46389;-81
2023/03/22 03:39:21;;;;;;;1.42;0.45;;;17.60;75.80;;;;;;5065150;28;45143;-81
2023/03/22 03:41:51;;;;;;;1.33;0.52;;;17.60;75.90;;;;;;5065080;28;45284;-81
2023/03/22 03:44:19;;;;;;;1.20;0.50;;;17.60;75.90;;;;;;5065562;28;45210;-81
2023/03/22 03:46:47;;;;;;;0.55;0.40;;;17.60;75.70;;;;;;5064772;28;47614;-81
2023/03/22 03:49:16;;;;;;;0.90;0.40;;;17.60;76.10;;;;;;5064845;28;45423;-81
2023/03/22 03:51:48;;;;;;;0.40;0.40;;;17.60;75.70;;;;;;5064766;28;45160;-80
2023/03/22 03:54:15;;;;;;;0.73;0.40;;;17.70;76.20;;;;;;5065396;28;45558;-81
2023/03/22 03:56:42;;;;;;;0.40;0.40;;;17.70;75.60;;;;;;5064465;28;47465;-81
2023/03/22 03:59:11;;;;;;;1.42;0.50;;;17.60;75.80;;;;;;5064934;28;45214;-81
2023/03/22 04:01:38;;;;;;;0.68;0.40;;;17.60;75.90;;;;;;5066663;28;45296;-81
2023/03/22 04:04:05;;;;;;;0.93;0.40;;;17.70;75.50;;;;;;5066468;28;45200;-81
2023/03/22 04:06:34;;;;;;;1.52;0.50;;;17.60;75.60;;;;;;5064334;28;47593;-80
2023/03/22 04:09:01;;;;;;;0.80;0.50;;;17.60;75.10;;;;;;5064353;28;46047;-80
2023/03/22 04:11:27;;;;;;;0.40;0.40;;;17.60;75.00;;;;;;5064411;28;45168;-81
2023/03/22 04:13:54;;;;;;;1.65;0.57;;;17.60;75.20;;;;;;5064811;28;45178;-81
2023/03/22 04:16:23;;;;;;;0.88;0.50;;;17.60;75.20;;;;;;5064241;28;46663;-81
2023/03/22 04:18:50;;;;;;;0.75;0.45;;;17.60;75.00;;;;;;5064378;28;45107;-80
2023/03/22 04:21:18;;;;;;;0.93;0.50;;;17.60;75.00;;;;;;5064660;28;45313;-81
2023/03/22 04:23:45;;;;;;;0.55;0.30;;;17.60;74.70;;;;;;5064529;28;45350;-81
2023/03/22 04:26:12;;;;;;;0.60;0.47;;;17.60;74.80;;;;;;5064452;28;45655;-81
2023/03/22 04:28:39;;;;;;;0.40;0.40;;;17.60;74.70;;;;;;5064442;28;45188;-80
2023/03/22 04:31:07;;;;;;;0.82;0.47;;;17.60;74.60;;;;;;5064605;28;45233;-81
2023/03/22 04:33:38;;;;;;;0.38;0.30;;;17.60;74.50;;;;;;5064303;28;45601;-81
2023/03/22 04:36:05;;;;;;;0.50;0.43;;;17.60;74.30;;;;;;5063981;28;45668;-80
2023/03/22 04:38:32;;;;;;;0.55;0.40;;;17.60;74.70;;;;;;5064069;28;45122;-81
2023/03/22 04:40:59;;;;;;;0.30;0.30;;;17.60;74.60;;;;;;5064699;28;45250;-80
2023/03/22 04:43:26;;;;;;;1.55;0.70;;;17.60;75.20;;;;;;5064291;28;45178;-81
2023/03/22 04:45:56;;;;;;;0.60;0.50;;;17.60;75.30;;;;;;5064350;28;48042;-83
2023/03/22 04:48:26;;;;;;;1.35;0.60;;;17.60;75.10;;;;;;5063714;28;45383;-81
2023/03/22 04:50:54;;;;;;;0.88;0.50;;;17.60;75.20;;;;;;5064599;28;45122;-81
2023/03/22 04:53:26;;;;;;;0.30;0.30;;;17.60;75.20;;;;;;5066073;28;45142;-84
2023/03/22 04:55:55;;;;;;;1.08;0.55;;;17.60;75.30;;;;;;5065614;28;48753;-84
2023/03/22 04:58:22;;;;;;;0.70;0.50;;;17.60;74.90;;;;;;5064632;28;45111;-85
2023/03/22 05:00:51;;;;;;;0.32;0.32;;;17.50;74.20;;;;;;5065283;28;45300;-85
2023/03/22 05:03:19;;;;;;;2.20;0.60;;;17.50;74.20;;;;;;5065165;28;45579;-85
2023/03/22 05:05:51;;;;;;;0.95;0.60;;;17.50;74.10;;;;;;5064140;28;48801;-81
2023/03/22 05:08:20;;;;;;;1.05;0.60;;;17.50;73.80;;;;;;5063688;28;45304;-81
2023/03/22 05:10:46;;;;;;;0.75;0.60;;;17.50;72.50;;;;;;5064076;28;45144;-83
2023/03/22 05:13:13;;;;;;;0.80;0.70;;;17.50;71.80;;;;;;5063881;28;45196;-81
2023/03/22 05:15:41;;;;;;;0.50;0.50;;;17.40;71.00;;;;;;5063821;28;45213;-81
2023/03/22 05:18:08;;;;;;;1.73;0.45;;;17.40;70.70;;;;;;5063189;28;45194;-81
2023/03/22 05:20:35;;;;;;;1.33;0.57;;;17.40;71.00;;;;;;5063775;28;45186;-81
2023/03/22 05:23:03;;;;;;;0.63;0.60;;;17.40;71.00;;;;;;5064043;28;45148;-83
2023/03/22 05:25:32;;;;;;;1.08;0.60;;;17.40;71.90;;;;;;5063151;28;47536;-83
2023/03/22 05:28:00;;;;;;;1.20;0.70;;;17.40;71.50;;;;;;5063771;28;45134;-82
2023/03/22 05:30:27;;;;;;;1.13;0.80;;;17.40;71.00;;;;;;5064197;28;45215;-81
2023/03/22 05:32:59;;;;;;;0.93;0.60;;;17.40;71.00;;;;;;5063612;28;45155;-83
2023/03/22 05:35:26;;;;;;;1.13;0.60;;;17.30;70.80;;;;;;5063991;28;47444;-82
2023/03/22 05:37:53;;;;;;;1.15;0.80;;;17.40;71.40;;;;;;5063449;28;45115;-83
2023/03/22 05:40:20;;;;;;;1.95;0.73;;;17.40;71.50;;;;;;5063618;28;45233;-82
2023/03/22 05:42:48;;;;;;;1.90;0.70;;;17.40;71.60;;;;;;5063811;28;45209;-84
2023/03/22 05:45:15;;;;;;;1.42;0.60;;;17.40;71.50;;;;;;5066686;28;46159;-83
2023/03/22 05:47:42;;;;;;;1.98;0.77;;;17.40;71.70;;;;;;5063674;28;46562;-82
2023/03/22 05:50:12;;;;;;;1.10;0.60;;;17.40;71.90;;;;;;5063889;28;45409;-82
2023/03/22 05:52:39;;;;;;;1.52;0.80;;;17.50;72.20;;;;;;5063491;28;45168;-83
2023/03/22 05:55:07;;;;;;;1.45;0.93;;;17.50;72.40;;;;;;5063433;28;46617;-82
2023/03/22 05:57:34;;;;;;;0.88;0.82;;;17.50;72.60;;;;;;5063057;28;46469;-82
2023/03/22 06:00:02;;;;;;;1.35;0.73;;;17.50;72.80;;;;;;5063313;28;45247;-82
2023/03/22 06:02:29;;;;;;;0.88;0.68;;;17.50;72.80;;;;;;5063374;28;45247;-82
2023/03/22 06:04:56;;;;;;;1.02;0.80;;;17.50;72.60;;;;;;5063258;28;46601;-82
2023/03/22 06:07:24;;;;;;;1.25;0.60;;;17.50;72.90;;;;;;5063161;28;45958;-82
2023/03/22 06:09:50;;;;;;;0.82;0.43;;;17.50;73.10;;;;;;5063734;28;45217;-82
2023/03/22 06:12:21;;;;;;;2.63;0.82;;;17.50;73.20;;;;;;5063414;28;45475;-84
2023/03/22 06:14:48;;;;;;;1.70;0.80;;;17.50;73.30;;;;;;5063320;28;47535;-83
2023/03/22 06:17:16;;;;;;;0.68;0.45;;;17.50;73.20;;;;;;5063066;28;45210;-83
2023/03/22 06:19:43;;;;;;;3.42;0.77;;;17.50;73.30;;;;;;5062957;28;45411;-83
2023/03/22 06:22:09;;;;;;;1.52;0.70;;;17.50;73.50;;;;;;5063732;28;45551;-83
2023/03/22 06:24:39;;;;;;;1.40;0.65;;;17.50;73.50;;;;;;5062970;28;47109;-83
2023/03/22 06:27:06;;;;;;;1.17;0.60;;;17.50;73.40;;;;;;5063015;28;45317;-83
2023/03/22 06:29:33;;;;;;;0.55;0.55;;;17.50;73.60;;;;;;5063477;28;45335;-83
2023/03/22 06:32:00;;;;;;;1.95;0.73;;;17.50;73.60;;;;;;5066007;28;45110;-86
2023/03/22 06:34:28;;;;;;;1.10;0.50;;;17.50;73.50;;;;;;5066426;28;45648;-85
2023/03/22 06:36:55;;;;;;;1.65;0.93;;;17.50;73.80;;;;;;5066557;28;45277;-83
2023/03/22 06:39:23;;;;;;;1.60;0.50;;;17.50;74.70;;;;;;5068639;28;45364;-82
2023/03/22 06:41:50;;;;;;;0.82;0.60;;;17.50;73.90;;;;;;5065894;28;45671;-81
2023/03/22 06:44:17;;;;;;;2.05;0.60;;;17.50;73.90;;;;;;5065304;28;46970;-81
2023/03/22 06:46:44;;;;;;;1.08;0.60;;;17.50;73.90;;;;;;5065965;28;45276;-81
2023/03/22 06:49:11;;;;;;;1.38;0.50;;;17.50;73.90;;;;;;5065626;28;45284;-81
2023/03/22 06:51:39;;;;;;;2.30;0.70;;;17.60;74.00;;;;;;5065439;28;45228;-81
2023/03/22 06:54:06;;;;;;;1.10;0.40;;;17.50;74.00;;;;;;5065284;28;47787;-83
2023/03/22 06:56:33;;;;;;;1.35;0.45;;;17.60;74.00;;;;;;5065591;28;45300;-82
2023/03/22 06:59:00;;;;;;;1.50;0.50;;;17.60;74.00;;;;;;5065767;28;45273;-83
2023/03/22 07:01:27;;;;;;;0.80;0.55;;;17.60;73.80;;;;;;5065645;28;45393;-83
2023/03/22 07:03:53;;;;;;;3.05;0.60;;;17.60;73.90;;;;;;5065523;28;46587;-85
2023/03/22 07:06:20;;;;;;;0.52;0.32;;;17.60;74.00;;;;;;5065776;28;45296;-84
2023/03/22 07:08:48;;;;;;;0.40;0.38;;;17.50;74.10;;;;;;5065724;28;45182;-83
2023/03/22 07:11:15;;;;;;;1.50;0.60;;;17.50;74.00;;;;;;5065871;28;45394;-83
2023/03/22 07:13:43;;;;;;;1.40;0.43;;;17.50;74.20;;;;;;5065021;28;47532;-83
2023/03/22 07:16:10;;;;;;;0.88;0.30;;;17.50;74.10;;;;;;5065462;28;45118;-84
2023/03/22 07:18:37;;;;;;;0.80;0.38;;;17.50;74.30;;;;;;5065531;28;45182;-83
2023/03/22 07:21:04;;;;;;;0.70;0.32;;;17.50;74.10;;;;;;5065539;28;45053;-83
2023/03/22 07:23:31;;;;;;;1.88;0.55;;;17.50;74.10;;;;;;5065373;28;45452;-83
2023/03/22 07:26:00;;;;;;;0.68;0.40;;;17.50;74.20;;;;;;5065088;28;45164;-83
2023/03/22 07:28:27;;;;;;;2.08;0.40;;;17.50;74.30;;;;;;5065984;28;45107;-84
2023/03/22 07:31:00;;;;;;;0.60;0.43;;;17.50;74.00;;;;;;5069120;28;45130;-84
2023/03/22 07:33:27;;;;;;;1.85;0.60;;;17.50;74.50;;;;;;5065204;28;45456;-83
2023/03/22 07:35:53;;;;;;;0.38;0.20;;;17.50;74.20;;;;;;5065132;28;45244;-84
2023/03/22 07:38:20;;;;;;;0.80;0.30;;;17.50;74.20;;;;;;5065400;28;45359;-84
2023/03/22 07:40:49;;;;;;;0.45;0.40;;;17.50;74.30;;;;;;5065465;28;45410;-83
2023/03/22 07:43:17;;;;;;;1.15;0.65;;;17.60;74.20;;;;;;5065103;28;45954;-84
2023/03/22 07:45:44;;;;;;;0.90;0.38;;;17.60;74.20;;;;;;5065134;28;45307;-83
2023/03/22 07:48:11;;;;;;;1.13;0.35;;;17.60;74.20;;;;;;5065123;28;45248;-83
2023/03/22 07:50:37;;;;;;;0.75;0.40;;;17.60;74.00;;;;;;5065612;28;45174;-83
2023/03/22 07:53:04;;;;;;;0.30;0.20;;;17.60;74.30;;;;;;5065352;28;46482;-84
2023/03/22 07:55:31;;;;;;;1.17;0.45;;;17.60;74.10;;;;;;5065176;28;45235;-83
2023/03/22 07:57:58;;;;;;;0.95;0.25;;;17.60;73.90;;;;;;5064974;28;45109;-84
2023/03/22 08:00:26;;;;;;;0.70;0.25;;;17.60;74.00;;;;;;5065216;28;45230;-84
2023/03/22 08:02:53;;;;;;;0.32;0.28;;;18.00;74.10;;;;;;5064979;28;47566;-83
2023/03/22 08:05:21;;;;;;;2.40;0.35;;;17.60;73.80;;;;;;5065264;28;45190;-83
2023/03/22 08:07:48;;;;;;;1.58;0.30;;;17.60;73.80;;;;;;5064930;28;45235;-83
2023/03/22 08:10:15;;;;;;;0.20;0.10;;;17.60;73.70;;;;;;5065013;28;45076;-83
2023/03/22 08:12:42;;;;;;;0.40;0.30;;;17.60;73.40;;;;;;5064935;28;48914;-83
2023/03/22 08:15:10;;;;;;;0.28;0.28;;;17.60;73.60;;;;;;5064588;28;45144;-83
2023/03/22 08:17:39;;;;;;;2.63;0.22;;;17.60;73.40;;;;;;5065039;28;45069;-83
2023/03/22 08:20:07;;;;;;;0.88;0.35;;;17.60;73.30;;;;;;5065128;28;45462;-83
2023/03/22 08:22:35;;;;;;;0.35;0.20;;;17.60;73.50;;;;;;5067989;28;46866;-83
2023/03/22 08:25:02;;;;;;;1.15;0.20;;;17.60;73.20;;;;;;5064871;28;46260;-83
2023/03/22 08:27:29;;;;;;;0.38;0.28;;;17.60;73.20;;;;;;5064762;28;45076;-83
2023/03/22 08:29:57;;;;;;;1.00;0.20;;;17.60;72.90;;;;;;5064878;28;45109;-83
2023/03/22 08:32:24;;;;;;;1.30;0.30;;;17.60;73.00;;;;;;5064510;28;45474;-83
2023/03/22 08:34:52;;;;;;;1.48;0.30;;;17.60;72.70;;;;;;5064276;28;45360;-83
2023/03/22 08:37:20;;;;;;;0.47;0.30;;;17.60;72.80;;;;;;5064400;28;45134;-84
2023/03/22 08:39:47;;;;;;;0.85;0.30;;;17.60;73.40;;;;;;5064608;28;45366;-83
2023/03/22 08:42:14;;;;;;;0.20;0.20;;;17.60;73.00;;;;;;5064104;28;46322;-83
2023/03/22 08:44:41;;;;;;;0.30;0.22;;;17.60;73.10;;;;;;5064338;28;45935;-83
2023/03/22 08:47:07;;;;;;;0.82;0.17;;;17.70;73.10;;;;;;5063893;28;45149;-83
2023/03/22 08:49:34;;;;;;;1.45;0.28;;;17.70;73.20;;;;;;5064648;28;45087;-83
2023/03/22 08:52:03;;;;;;;1.00;0.40;;;17.70;73.10;;;;;;5064196;28;45466;-83
2023/03/22 08:54:31;;;;;;;0.45;0.20;;;17.70;73.00;;;;;;5063534;28;45278;-84
2023/03/22 08:56:59;;;;;;;1.02;0.30;;;17.70;73.20;;;;;;5064658;28;45106;-83
2023/03/22 08:59:26;;;;;;;1.38;0.10;;;17.70;72.90;;;;;;5064366;28;45567;-83
2023/03/22 09:01:53;;;;;;;1.65;0.22;;;17.60;72.70;;;;;;5064170;28;48208;-83
2023/03/22 09:04:20;;;;;;;1.38;0.40;;;17.60;72.60;;;;;;5064142;28;45164;-83
2023/03/22 09:06:47;;;;;;;1.23;0.50;;;17.70;72.80;;;;;;5064389;28;45235;-83
2023/03/22 09:09:15;;;;;;;0.35;0.22;;;17.60;72.70;;;;;;5064309;28;45448;-82
2023/03/22 09:11:42;;;;;;;0.10;0.10;;;17.60;72.40;;;;;;5064090;28;45588;-83
2023/03/22 09:14:09;;;;;;;0.55;0.40;;;17.70;72.70;;;;;;5066884;28;45947;-83
2023/03/22 09:16:36;;;;;;;0.90;0.20;;;17.60;72.40;;;;;;5064408;28;45208;-83
2023/03/22 09:19:03;;;;;;;1.10;0.22;;;17.60;72.50;;;;;;5064194;28;45134;-83
2023/03/22 09:21:30;;;;;;;0.32;0.20;;;17.60;72.30;;;;;;5063877;28;45429;-83
2023/03/22 09:23:57;;;;;;;1.17;0.30;;;17.70;72.60;;;;;;5064235;28;45454;-83
2023/03/22 09:26:25;;;;;;;0.25;0.20;;;17.60;72.60;;;;;;5064352;28;45366;-84
2023/03/22 09:28:52;;;;;;;0.80;0.30;;;17.70;73.00;;;;;;5064009;28;45101;-83
2023/03/22 09:31:19;;;;;;;0.90;0.30;;;17.70;72.60;;;;;;5063922;28;47704;-83
2023/03/22 09:33:46;;;;;;;0.65;0.20;;;17.70;72.40;;;;;;5063648;28;45398;-83
2023/03/22 09:36:13;;;;;;;0.45;0.20;;;17.70;72.40;;;;;;5063703;28;45173;-83
2023/03/22 09:38:40;;;;;;;0.75;0.15;;;17.70;72.40;;;;;;5063716;28;45431;-84
2023/03/22 09:41:12;;;;;;;0.75;0.25;;;17.70;72.70;;;;;;5063949;28;46284;-84
2023/03/22 09:43:44;;;;;;;0.43;0.30;;;17.70;72.30;;;;;;5063955;28;45261;-84
2023/03/22 09:46:14;;;;;;;1.30;0.30;;;17.70;72.90;;;;;;5063468;28;45081;-83
2023/03/22 09:48:45;;;;;;;1.80;0.40;;;17.60;72.90;;;;;;5063747;28;45385;-84
2023/03/22 09:51:28;;;;;;;0.20;0.20;;;17.60;72.90;;;;;;5063565;28;46515;-84
2023/03/22 09:53:55;;;;;;;0.10;0.10;;;17.60;72.60;;;;;;5063557;28;45304;-83
2023/03/22 09:56:25;;;;;;;0.57;0.25;;;17.60;72.50;;;;;;5063670;28;45189;-83
2023/03/22 09:59:00;;;;;;;0.20;0.20;;;17.60;72.80;;;;;;5063466;28;45633;-81
2023/03/22 10:01:36;;;;;;;0.20;0.20;;;17.60;72.50;;;;;;5060077;28;45426;-83
2023/03/22 10:04:32;;;;;;;0.77;0.28;;;17.60;72.80;;;;;;5063481;28;45153;-82
2023/03/22 10:07:06;;;;;;;0.65;0.22;;;17.60;72.60;;;;;;5063354;28;45282;-82
2023/03/22 10:09:41;;;;;;;0.30;0.03;;;17.60;72.60;;;;;;5066258;28;45589;-82
2023/03/22 10:12:15;;;;;;;0.10;0.08;;;17.60;72.40;;;;;;5066033;28;46627;-81
2023/03/22 10:14:49;;;;;;;0.52;0.20;;;17.60;72.60;;;;;;5065842;28;45325;-81
2023/03/22 10:17:19;;;;;;;0.55;0.30;;;17.60;72.60;;;;;;5063014;28;45354;-82
2023/03/22 10:19:53;;;;;;;0.47;0.22;;;17.60;72.70;;;;;;5066285;28;45117;-82
2023/03/22 10:22:24;;;;;;;0.90;0.45;;;17.60;72.60;;;;;;5065873;28;45487;-82
2023/03/22 10:24:53;;;;;;;0.20;0.20;;;17.60;72.60;;;;;;5065980;28;45229;-82
2023/03/22 10:27:22;;;;;;;1.30;0.28;;;17.60;72.60;;;;;;5066142;28;45321;-83
2023/03/22 10:29:55;;;;;;;0.50;0.20;;;17.60;72.40;;;;;;5065927;27;45336;-83
2023/03/22 10:32:29;;;;;;;0.45;0.10;;;17.60;72.60;;;;;;5065747;28;45266;-82
2023/03/22 10:34:56;;;;;;;0.32;0.20;;;17.70;72.60;;;;;;5066361;28;45222;-84
2023/03/22 10:37:27;;;;;;;0.40;0.22;;;17.70;72.30;;;;;;5066364;27;45144;-84
2023/03/22 10:39:56;;;;;;;0.43;0.20;;;17.70;72.60;;;;;;5066682;28;45376;-84
2023/03/22 10:42:26;;;;;;;0.90;0.28;;;17.70;72.70;;;;;;5066061;28;45370;-84
2023/03/22 10:44:58;;;;;;;1.25;0.30;;;17.70;72.60;;;;;;5066105;27;45162;-83
2023/03/22 10:47:32;;;;;;;0.47;0.22;;;17.70;72.40;;;;;;5065888;27;45422;-83
2023/03/22 10:50:02;;;;;;;2.28;0.40;;;17.70;72.30;;;;;;5066200;27;45268;-84
2023/03/22 10:52:40;;;;;;;1.40;0.30;;;17.70;72.20;;;;;;5066622;28;45403;-85
2023/03/22 10:55:11;;;;;;;0.40;0.30;;;17.70;72.10;;;;;;5065773;27;45172;-82
2023/03/22 10:57:41;;;;;;;0.20;0.20;;;17.70;72.40;;;;;;5069764;27;45074;-83
2023/03/22 11:00:16;;;;;;;0.40;0.10;;;17.70;72.40;;;;;;5066749;28;45137;-84
2023/03/22 11:02:47;;;;;;;0.52;0.10;;;17.70;72.30;;;;;;5066341;28;47031;-85
2023/03/22 11:05:22;;;;;;;0.68;0.30;;;17.70;72.20;;;;;;5065862;28;45135;-83
2023/03/22 11:07:49;;;;;;;0.20;0.20;;;17.70;72.20;;;;;;5063083;28;45163;-84
2023/03/22 11:10:31;;;;;;;0.60;0.10;;;17.60;72.40;;;;;;5066275;28;45064;-84
2023/03/22 11:13:13;;;;;;;1.33;0.30;;;17.60;72.30;;;;;;5065992;27;45757;-84
2023/03/22 11:15:49;;;;;;;0.55;0.40;;;17.60;72.20;;;;;;5064778;27;45374;-83
2023/03/22 11:18:17;;;;;;;0.73;0.20;;;17.60;72.20;;;;;;5065690;27;45136;-84
2023/03/22 11:20:57;;;;;;;1.08;0.30;;;17.60;72.20;;;;;;5065579;28;45410;-83
2023/03/22 11:23:25;;;;;;;0.90;0.40;;;17.60;72.60;;;;;;5065541;27;46606;-81
2023/03/22 11:25:56;;;;;;;0.38;0.10;;;17.60;72.40;;;;;;5065133;28;45346;-81
2023/03/22 11:28:28;;;;;;;0.35;0.30;;;17.60;72.60;;;;;;5062320;28;45238;-80
2023/03/22 11:31:04;;;;;;;0.73;0.30;;;17.70;72.40;;;;;;5065086;27;45141;-81
2023/03/22 11:33:31;;;;;;;0.68;0.25;;;17.70;72.60;;;;;;5064694;27;46714;-81
2023/03/22 11:36:00;;;;;;;0.22;0.20;;;17.70;72.50;;;;;;5064698;28;45173;-81
2023/03/22 11:38:30;;;;;;;0.63;0.30;;;17.70;72.40;;;;;;5065400;28;45226;-81
2023/03/22 11:41:01;;;;;;;0.50;0.20;;;17.70;72.60;;;;;;5065676;28;45484;-81
2023/03/22 11:43:34;;;;;;;1.05;0.20;;;17.70;72.70;;;;;;5065310;28;47253;-82
2023/03/22 11:46:02;;;;;;;1.25;0.30;;;17.70;72.40;;;;;;5065418;27;45329;-83
2023/03/22 11:48:31;;;;;;;0.45;0.20;;;17.60;72.20;;;;;;5065614;28;45146;-84
2023/03/22 11:51:06;;;;;;;1.65;0.30;;;17.60;72.20;;;;;;5069075;27;45582;-85
2023/03/22 11:53:35;;;;;;;0.20;0.20;;;17.60;72.30;;;;;;5065414;28;48322;-84
2023/03/22 11:56:06;;;;;;;0.20;0.20;;;17.30;72.00;;;;;;5064875;27;45176;-85
2023/03/22 11:58:47;;;;;;;1.13;0.30;;;19.30;74.40;;;;;;5065047;28;45430;-82
2023/03/22 12:01:20;;;;;;;0.95;0.30;;;17.60;72.60;;;;;;5065713;28;45061;-82
2023/03/22 12:03:51;;;;;;;0.52;0.10;;;17.50;72.50;;;;;;5065003;28;45485;-82
2023/03/22 12:06:24;;;;;;;0.00;0.00;;;17.60;72.60;;;;;;5064438;28;45901;-81
2023/03/22 12:08:55;;;;;;;0.10;0.10;;;17.60;72.60;;;;;;5064859;27;45078;-82
2023/03/22 12:11:28;;;;;;;0.20;0.20;;;17.60;72.60;;;;;;5061758;28;45193;-83
2023/03/22 12:13:59;;;;;;;0.28;0.20;;;17.60;72.40;;;;;;5063456;27;46556;-83
2023/03/22 12:16:32;;;;;;;0.80;0.30;;;17.60;72.60;;;;;;5064484;27;45225;-83
2023/03/22 12:19:07;;;;;;;0.10;0.10;;;17.60;72.60;;;;;;5064861;28;45097;-82
2023/03/22 12:21:35;;;;;;;0.65;0.20;;;17.60;72.40;;;;;;5064887;27;45166;-83
2023/03/22 12:24:04;;;;;;;0.77;0.30;;;17.60;72.40;;;;;;5064710;28;47452;-84
2023/03/22 12:26:33;;;;;;;0.80;0.10;;;17.60;72.60;;;;;;5064990;28;45378;-84
2023/03/22 12:29:03;;;;;;;0.63;0.17;;;17.60;72.30;;;;;;5064039;28;45272;-84
2023/03/22 12:31:36;;;;;;;0.17;0.10;;;17.60;72.50;;;;;;5064970;28;45253;-84
2023/03/22 12:34:07;;;;;;;0.60;0.20;;;17.60;72.20;;;;;;5064622;28;47308;-85
2023/03/22 12:36:40;;;;;;;0.25;0.13;;;17.70;72.40;;;;;;5064514;28;45682;-83
2023/03/22 12:39:08;;;;;;;0.10;0.10;;;17.70;72.40;;;;;;5064931;28;45221;-83
2023/03/22 12:41:38;;;;;;;0.30;0.20;;;17.70;72.50;;;;;;5067758;28;45119;-84
2023/03/22 12:44:13;;;;;;;0.63;0.22;;;17.70;72.40;;;;;;5064981;27;45736;-83
2023/03/22 12:46:49;;;;;;;0.43;0.15;;;17.70;72.30;;;;;;5064633;28;45256;-83
2023/03/22 12:49:26;;;;;;;0.52;0.30;;;17.70;72.20;;;;;;5064851;27;45292;-84
2023/03/22 12:51:59;;;;;;;0.10;0.10;;;17.70;72.20;;;;;;5064838;28;45535;-83
2023/03/22 12:54:27;;;;;;;0.22;0.20;;;17.70;72.40;;;;;;5063919;27;45245;-82
2023/03/22 12:56:55;;;;;;;0.32;0.10;;;17.70;72.40;;;;;;5063946;27;45222;-84
2023/03/22 12:59:26;;;;;;;0.30;0.17;;;17.70;72.20;;;;;;5064416;28;45288;-83
2023/03/22 13:01:59;;;;;;;0.45;0.13;;;17.70;72.40;;;;;;5064514;27;45442;-83